Time;durP1;ratioP1;P1;durP2;ratioP2;P2;SDS_P1;SDS_P2;PMS_P1;PMS_P2;Temp;Humidity;BMP_temperature;BMP_pressure;BME280_temperature;BME280_humidity;BME280_pressure;Samples;Min_cycle;Max_cycle;Signal;HPM_P1;HPM_P2
2020/12/23 00:01:11;;;;;;;;;;;;;;;;;;5044664;28;11697;-49
2020/12/23 00:03:36;;;;;;;;;;;;;;;;;;5045163;28;8016;-51
2020/12/23 00:06:02;;;;;;;;;;;;;;;;;;5040193;28;14808;-49
2020/12/23 00:08:27;;;;;;;;;;;;;;;;;;5038276;28;14617;-47
2020/12/23 00:10:52;;;;;;;;;;;;;;;;;;5048697;28;6783;-47
2020/12/23 00:13:18;;;;;;;;;;;;;;;;;;5042383;28;11227;-55
2020/12/23 00:15:44;;;;;;;;;;;;;;;;;;5046696;28;15735;-52
2020/12/23 00:18:09;;;;;;;;;;;;;;;;;;5046195;28;14841;-48
2020/12/23 00:20:34;;;;;;;;;;;;;;;;;;5047539;28;10075;-52
2020/12/23 00:22:59;;;;;;;;;;;;;;;;;;5049264;28;9765;-53
2020/12/23 00:25:25;;;;;;;;;;;;;;;;;;5041662;28;12862;-55
2020/12/23 00:27:50;;;;;;;;;;;;;;;;;;5046715;28;14000;-50
2020/12/23 00:30:16;;;;;;;;;;;;;;;;;;5046733;28;12689;-49
2020/12/23 00:32:42;;;;;;;;;;;;;;;;;;5041703;28;9046;-55
2020/12/23 00:35:07;;;;;;;;;;;;;;;;;;5044091;28;4221;-53
2020/12/23 00:37:32;;;;;;;;;;;;;;;;;;5046061;28;14842;-50
2020/12/23 00:39:57;;;;;;;;;;;;;;;;;;5046450;28;14288;-50
2020/12/23 00:42:23;;;;;;;;;;;;;;;;;;5045426;28;11442;-51
2020/12/23 00:44:48;;;;;;;;;;;;;;;;;;5044853;28;15795;-50
2020/12/23 00:47:13;;;;;;;;;;;;;;;;;;5046580;28;4164;-55
2020/12/23 00:49:39;;;;;;;;;;;;;;;;;;5046556;28;12817;-47
2020/12/23 00:52:04;;;;;;;;;;;;;;;;;;5046283;28;15773;-45
2020/12/23 00:54:29;;;;;;;;;;;;;;;;;;5045972;28;14211;-47
2020/12/23 00:56:55;;;;;;;;;;;;;;;;;;5046789;28;15837;-52
2020/12/23 00:59:20;;;;;;;;;;;;;;;;;;5049192;28;4152;-47
2020/12/23 01:01:45;;;;;;;;;;;;;;;;;;5044986;28;12885;-53
2020/12/23 01:04:10;;;;;;;;;;;;;;;;;;5044289;28;10471;-55
2020/12/23 01:06:36;;;;;;;;;;;;;;;;;;5045493;28;13371;-55
2020/12/23 01:09:01;;;;;;;;;;;;;;;;;;5044888;28;9530;-53
2020/12/23 01:11:26;;;;;;;;;;;;;;;;;;5046151;28;9257;-51
2020/12/23 01:13:51;;;;;;;;;;;;;;;;;;5045978;28;6938;-53
2020/12/23 01:16:23;;;;;;;;;;;;;;;;;;5044639;28;15851;-54
2020/12/23 01:18:48;;;;;;;;;;;;;;;;;;5039933;28;15163;-50
2020/12/23 01:21:14;;;;;;;;;;;;;;;;;;5045846;28;8174;-50
2020/12/23 01:23:40;;;;;;;;;;;;;;;;;;5045472;28;15313;-50
2020/12/23 01:26:06;;;;;;;;;;;;;;;;;;5044565;28;3972;-53
2020/12/23 01:28:31;;;;;;;;;;;;;;;;;;5046476;28;13728;-51
2020/12/23 01:30:56;;;;;;;;;;;;;;;;;;5047056;28;10251;-56
2020/12/23 01:33:21;;;;;;;;;;;;;;;;;;5042913;28;6807;-47
2020/12/23 01:35:47;;;;;;;;;;;;;;;;;;5045057;28;15359;-53
2020/12/23 01:38:12;;;;;;;;;;;;;;;;;;5047252;28;4216;-55
2020/12/23 01:40:37;;;;;;;;;;;;;;;;;;5044692;28;15708;-53
2020/12/23 01:43:05;;;;;;;;;;;;;;;;;;5046039;28;15263;-58
2020/12/23 01:45:31;;;;;;;;;;;;;;;;;;5041697;28;18253;-50
2020/12/23 01:47:56;;;;;;;;;;;;;;;;;;5045396;28;16634;-52
2020/12/23 01:50:22;;;;;;;;;;;;;;;;;;5048758;28;4300;-57
2020/12/23 01:52:47;;;;;;;;;;;;;;;;;;5045109;28;9922;-54
2020/12/23 01:55:12;;;;;;;;;;;;;;;;;;5045668;28;13012;-50
2020/12/23 01:57:38;;;;;;;;;;;;;;;;;;5051018;28;17452;-51
2020/12/23 02:00:07;;;;;;;;;;;;;;;;;;5050142;28;9575;-50
2020/12/23 02:02:36;;;;;;;;;;;;;;;;;;5046862;28;14274;-50
2020/12/23 02:05:02;;;;;;;;;;;;;;;;;;5051743;28;10235;-53
2020/12/23 02:07:28;;;;;;;;;;;;;;;;;;5050844;28;11265;-47
2020/12/23 02:09:54;;;;;;;;;;;;;;;;;;5043581;28;14049;-52
2020/12/23 02:12:20;;;;;;;;;;;;;;;;;;5049742;28;14352;-50
2020/12/23 02:14:46;;;;;;;;;;;;;;;;;;5044617;28;12515;-49
2020/12/23 02:17:11;;;;;;;;;;;;;;;;;;5053049;28;4149;-50
2020/12/23 02:19:51;;;;;;;;;;;;;;;;;;5047879;28;9420;-55
2020/12/23 02:22:21;;;;;;;;;;;;;;;;;;5045311;28;14195;-55
2020/12/23 02:24:47;;;;;;;;;;;;;;;;;;5049673;28;9653;-51
2020/12/23 02:27:13;;;;;;;;;;;;;;;;;;5049498;28;8925;-52
2020/12/23 02:29:40;;;;;;;;;;;;;;;;;;5052639;28;15605;-51
2020/12/23 02:32:06;;;;;;;;;;;;;;;;;;5050025;28;4466;-50
2020/12/23 02:34:31;;;;;;;;;;;;;;;;;;5047183;28;12083;-49
2020/12/23 02:36:56;;;;;;;;;;;;;;;;;;5049214;28;14605;-46
2020/12/23 02:39:21;;;;;;;;;;;;;;;;;;5039491;28;6739;-52
2020/12/23 02:41:47;;;;;;;;;;;;;;;;;;5037907;28;12944;-51
2020/12/23 02:44:12;;;;;;;;;;;;;;;;;;5048202;28;4270;-51
2020/12/23 02:46:37;;;;;;;;;;;;;;;;;;5046017;28;9447;-52
2020/12/23 02:49:02;;;;;;;;;;;;;;;;;;5047935;28;14554;-55
2020/12/23 02:51:27;;;;;;;;;;;;;;;;;;5047879;28;13286;-55
2020/12/23 02:53:53;;;;;;;;;;;;;;;;;;5049132;28;9354;-52
2020/12/23 02:56:18;;;;;;;;;;;;;;;;;;5037284;28;4227;-46
2020/12/23 02:58:43;;;;;;;;;;;;;;;;;;5045126;28;15251;-50
2020/12/23 03:01:08;;;;;;;;;;;;;;;;;;5041319;28;15300;-51
2020/12/23 03:03:34;;;;;;;;;;;;;;;;;;5047981;28;14872;-49
2020/12/23 03:05:59;;;;;;;;;;;;;;;;;;5043682;28;11685;-52
2020/12/23 03:08:24;;;;;;;;;;;;;;;;;;5033355;28;11820;-49
2020/12/23 03:10:49;;;;;;;;;;;;;;;;;;5049303;28;9377;-48
2020/12/23 03:13:15;;;;;;;;;;;;;;;;;;5048110;28;14448;-49
2020/12/23 03:15:40;;;;;;;;;;;;;;;;;;5048312;28;11836;-45
2020/12/23 03:18:05;;;;;;;;;;;;;;;;;;5047682;28;10460;-45
2020/12/23 03:20:30;;;;;;;;;;;;;;;;;;5048957;28;13754;-49
2020/12/23 03:22:56;;;;;;;;;;;;;;;;;;5048008;28;7177;-48
2020/12/23 03:25:21;;;;;;;;;;;;;;;;;;5043599;28;15888;-54
2020/12/23 03:27:46;;;;;;;;;;;;;;;;;;5043962;28;13333;-47
2020/12/23 03:30:11;;;;;;;;;;;;;;;;;;5047464;28;16281;-49
2020/12/23 03:32:37;;;;;;;;;;;;;;;;;;5034881;28;13932;-48
2020/12/23 03:35:02;;;;;;;;;;;;;;;;;;5047616;28;5566;-49
2020/12/23 03:37:27;;;;;;;;;;;;;;;;;;5048211;28;7379;-47
2020/12/23 03:39:53;;;;;;;;;;;;;;;;;;5046082;28;15263;-53
2020/12/23 03:42:18;;;;;;;;;;;;;;;;;;5049335;28;8080;-52
2020/12/23 03:44:43;;;;;;;;;;;;;;;;;;5040279;28;9690;-52
2020/12/23 03:47:08;;;;;;;;;;;;;;;;;;5041089;28;4121;-50
2020/12/23 03:49:34;;;;;;;;;;;;;;;;;;5045954;28;8570;-52
2020/12/23 03:51:59;;;;;;;;;;;;;;;;;;5043047;28;8906;-50
2020/12/23 03:54:24;;;;;;;;;;;;;;;;;;5046511;28;8819;-55
2020/12/23 03:56:49;;;;;;;;;;;;;;;;;;5047894;28;6810;-46
2020/12/23 03:59:15;;;;;;;;;;;;;;;;;;5049795;28;4232;-53
2020/12/23 04:01:40;;;;;;;;;;;;;;;;;;5045562;28;15041;-49
2020/12/23 04:04:05;;;;;;;;;;;;;;;;;;5045948;28;13603;-54
2020/12/23 04:06:30;;;;;;;;;;;;;;;;;;5046338;28;14584;-51
2020/12/23 04:08:56;;;;;;;;;;;;;;;;;;5047140;28;12927;-54
2020/12/23 04:11:21;;;;;;;;;;;;;;;;;;5049020;28;4200;-47
2020/12/23 04:13:46;;;;;;;;;;;;;;;;;;5040770;28;14169;-49
2020/12/23 04:16:11;;;;;;;;;;;;;;;;;;5046182;28;14543;-56
2020/12/23 04:18:37;;;;;;;;;;;;;;;;;;5048108;28;14860;-50
2020/12/23 04:21:02;;;;;;;;;;;;;;;;;;5046806;28;14359;-50
2020/12/23 04:23:27;;;;;;;;;;;;;;;;;;5041575;28;13786;-48
2020/12/23 04:25:53;;;;;;;;;;;;;;;;;;5046894;28;8369;-52
2020/12/23 04:28:18;;;;;;;;;;;;;;;;;;5047904;28;16051;-50
2020/12/23 04:30:47;;;;;;;;;;;;;;;;;;5040629;28;11326;-51
2020/12/23 04:33:12;;;;;;;;;;;;;;;;;;5040438;28;9426;-52
2020/12/23 04:35:37;;;;;;;;;;;;;;;;;;5045770;28;6659;-47
2020/12/23 04:38:03;;;;;;;;;;;;;;;;;;5048987;28;8688;-53
2020/12/23 04:40:28;;;;;;;;;;;;;;;;;;5046546;28;14541;-55
2020/12/23 04:42:54;;;;;;;;;;;;;;;;;;5046432;28;14035;-53
2020/12/23 04:45:19;;;;;;;;;;;;;;;;;;5047509;28;11561;-52
2020/12/23 04:47:45;;;;;;;;;;;;;;;;;;5046758;28;8174;-53
2020/12/23 04:50:11;;;;;;;;;;;;;;;;;;5047809;28;3856;-49
2020/12/23 04:52:36;;;;;;;;;;;;;;;;;;5040628;28;16403;-51
2020/12/23 04:55:03;;;;;;;;;;;;;;;;;;5047217;28;15955;-50
2020/12/23 04:57:28;;;;;;;;;;;;;;;;;;5045417;28;11228;-50
2020/12/23 04:59:54;;;;;;;;;;;;;;;;;;5046524;28;13915;-46
2020/12/23 05:02:19;;;;;;;;;;;;;;;;;;5048235;28;4224;-51
2020/12/23 05:04:45;;;;;;;;;;;;;;;;;;5045890;28;14403;-55
2020/12/23 05:07:10;;;;;;;;;;;;;;;;;;5045075;28;10041;-51
2020/12/23 05:09:35;;;;;;;;;;;;;;;;;;5028258;28;14459;-47
2020/12/23 05:12:01;;;;;;;;;;;;;;;;;;5040920;28;13733;-45
2020/12/23 05:14:27;;;;;;;;;;;;;;;;;;5048209;28;3986;-51
2020/12/23 05:16:52;;;;;;;;;;;;;;;;;;5046522;28;9539;-52
2020/12/23 05:19:18;;;;;;;;;;;;;;;;;;5045168;28;14005;-45
2020/12/23 05:21:44;;;;;;;;;;;;;;;;;;5042135;28;7157;-49
2020/12/23 05:24:10;;;;;;;;;;;;;;;;;;5045901;28;9106;-46
2020/12/23 05:26:38;;;;;;;;;;;;;;;;;;5040792;28;9552;-57
2020/12/23 05:29:03;;;;;;;;;;;;;;;;;;5048218;28;7876;-46
2020/12/23 05:31:31;;;;;;;;;;;;;;;;;;5045149;28;14590;-48
2020/12/23 05:33:58;;;;;;;;;;;;;;;;;;5048951;28;9441;-47
2020/12/23 05:36:25;;;;;;;;;;;;;;;;;;5048738;28;8444;-55
2020/12/23 05:38:50;;;;;;;;;;;;;;;;;;5052936;28;13906;-48
2020/12/23 05:41:15;;;;;;;;;;;;;;;;;;5049608;28;3902;-51
2020/12/23 05:43:41;;;;;;;;;;;;;;;;;;5045753;28;8161;-50
2020/12/23 05:46:08;;;;;;;;;;;;;;;;;;5049253;28;16148;-46
2020/12/23 05:48:34;;;;;;;;;;;;;;;;;;5048300;28;11844;-55
2020/12/23 05:51:00;;;;;;;;;;;;;;;;;;5048101;28;12860;-48
2020/12/23 05:53:29;;;;;;;;;;;;;;;;;;5047137;28;3919;-55
2020/12/23 05:55:55;;;;;;;;;;;;;;;;;;5039696;28;9661;-50
2020/12/23 05:58:24;;;;;;;;;;;;;;;;;;5049930;28;15752;-51
2020/12/23 06:00:50;;;;;;;;;;;;;;;;;;5042721;28;14916;-48
2020/12/23 06:03:16;;;;;;;;;;;;;;;;;;5040738;28;11658;-46
2020/12/23 06:05:43;;;;;;;;;;;;;;;;;;5043127;28;15219;-47
2020/12/23 06:08:08;;;;;;;;;;;;;;;;;;5051991;28;4117;-55
2020/12/23 06:10:35;;;;;;;;;;;;;;;;;;5050606;28;16244;-52
2020/12/23 06:13:08;;;;;;;;;;;;;;;;;;5049777;28;7490;-49
2020/12/23 06:15:37;;;;;;;;;;;;;;;;;;5053390;28;16540;-53
2020/12/23 06:18:02;;;;;;;;;;;;;;;;;;5053182;28;13708;-53
2020/12/23 06:20:29;;;;;;;;;;;;;;;;;;5053571;28;4309;-49
2020/12/23 06:22:54;;;;;;;;;;;;;;;;;;5051297;28;9416;-45
2020/12/23 06:25:22;;;;;;;;;;;;;;;;;;5047078;28;15121;-50
2020/12/23 06:27:51;;;;;;;;;;;;;;;;;;5045627;28;12472;-50
2020/12/23 06:30:18;;;;;;;;;;;;;;;;;;5045661;28;11814;-47
2020/12/23 06:32:43;;;;;;;;;;;;;;;;;;5031411;28;11838;-52
2020/12/23 06:35:08;;;;;;;;;;;;;;;;;;5049238;28;1958;-53
2020/12/23 06:37:34;;;;;;;;;;;;;;;;;;5048664;28;14327;-50
2020/12/23 06:40:06;;;;;;;;;;;;;;;;;;5046459;28;6787;-48
2020/12/23 06:42:32;;;;;;;;;;;;;;;;;;5051000;28;14001;-52
2020/12/23 06:45:01;;;;;;;;;;;;;;;;;;5050926;28;15601;-51
2020/12/23 06:47:28;;;;;;;;;;;;;;;;;;5053537;28;4098;-51
2020/12/23 06:49:57;;;;;;;;;;;;;;;;;;5045562;28;9111;-55
2020/12/23 06:52:28;;;;;;;;;;;;;;;;;;5045178;28;15970;-47
2020/12/23 06:54:55;;;;;;;;;;;;;;;;;;5043553;28;9113;-52
2020/12/23 06:57:35;;;;;;;;;;;;;;;;;;5044930;28;9412;-55
2020/12/23 07:00:01;;;;;;;;;;;;;;;;;;5045459;28;13176;-54
2020/12/23 07:02:27;;;;;;;;;;;;;;;;;;5049494;28;1800;-49
2020/12/23 07:04:53;;;;;;;;;;;;;;;;;;5050189;28;14340;-49
2020/12/23 07:07:37;;;;;;;;;;;;;;;;;;5047985;28;9300;-51
2020/12/23 07:10:34;;;;;;;;;;;;;;;;;;5043185;28;6924;-49
2020/12/23 07:13:04;;;;;;;;;;;;;;;;;;4988990;28;8874;-54
2020/12/23 07:15:30;;;;;;;;;;;;;;;;;;4986982;28;15954;-53
2020/12/23 07:17:57;;;;;;;;;;;;;;;;;;4986389;28;9436;-47
2020/12/23 07:20:23;;;;;;;;;;;;;;;;;;4991044;28;4872;-44
2020/12/23 07:22:49;;;;;;;;;;;;;;;;;;4987439;28;16238;-49
2020/12/23 07:25:24;;;;;;;;;;;;;;;;;;4987783;28;9483;-49
2020/12/23 07:27:57;;;;;;;;;;;;;;;;;;4989204;28;9401;-49
2020/12/23 07:30:22;;;;;;;;;;;;;;;;;;4985222;28;13797;-51
2020/12/23 07:33:17;;;;;;;;;;;;;;;;;;4984140;28;13126;-50
2020/12/23 07:35:49;;;;;;;;;;;;;;;;;;4975466;28;14642;-55
2020/12/23 07:38:15;;;;;;;;;;;;;;;;;;4987756;28;4241;-52
2020/12/23 07:40:41;;;;;;;;;;;;;;;;;;4987702;28;10324;-48
2020/12/23 07:43:06;;;;;;;;;;;;;;;;;;4987563;28;15397;-49
2020/12/23 07:45:32;;;;;;;;;;;;;;;;;;4987445;28;14684;-47
2020/12/23 07:47:57;;;;;;;;;;;;;;;;;;4998406;28;10668;-47
2020/12/23 07:50:23;;;;;;;;;;;;;;;;;;5050394;28;4423;-48
2020/12/23 07:52:49;;;;;;;;;;;;;;;;;;5045189;28;9348;-52
2020/12/23 07:55:16;;;;;;;;;;;;;;;;;;5047797;28;16102;-50
2020/12/23 07:57:41;;;;;;;;;;;;;;;;;;5045696;28;16209;-53
2020/12/23 08:00:07;;;;;;;;;;;;;;;;;;5046392;28;9646;-50
2020/12/23 08:02:33;;;;;;;;;;;;;;;;;;5049379;28;14012;-52
2020/12/23 08:04:59;;;;;;;;;;;;;;;;;;5047850;28;8960;-52
2020/12/23 08:07:24;;;;;;;;;;;;;;;;;;5046539;28;14213;-52
2020/12/23 08:09:50;;;;;;;;;;;;;;;;;;5042532;28;11703;-51
2020/12/23 08:12:16;;;;;;;;;;;;;;;;;;5043962;28;15306;-51
2020/12/23 08:14:41;;;;;;;;;;;;;;;;;;5048898;28;15828;-53
2020/12/23 08:17:07;;;;;;;;;;;;;;;;;;5045248;28;6929;-53
2020/12/23 08:19:32;;;;;;;;;;;;;;;;;;5046750;28;15379;-53
2020/12/23 08:22:08;;;;;;;;;;;;;;;;;;5045710;28;13490;-54
2020/12/23 08:24:33;;;;;;;;;;;;;;;;;;5046610;28;14303;-50
2020/12/23 08:26:58;;;;;;;;;;;;;;;;;;5045421;28;13448;-51
2020/12/23 08:29:24;;;;;;;;;;;;;;;;;;5050875;28;4236;-47
2020/12/23 08:31:52;;;;;;;;;;;;;;;;;;5044163;28;9496;-50
2020/12/23 08:34:18;;;;;;;;;;;;;;;;;;5033923;28;15531;-53
2020/12/23 08:36:50;;;;;;;;;;;;;;;;;;5046525;28;14602;-53
2020/12/23 08:39:21;;;;;;;;;;;;;;;;;;5041086;28;16485;-48
2020/12/23 08:41:46;;;;;;;;;;;;;;;;;;5045169;28;10862;-49
2020/12/23 08:44:19;;;;;;;;;;;;;;;;;;5047942;28;4379;-49
2020/12/23 08:46:45;;;;;;;;;;;;;;;;;;5045176;28;11593;-51
2020/12/23 08:49:12;;;;;;;;;;;;;;;;;;5054625;28;12948;-50
2020/12/23 08:51:37;;;;;;;;;;;;;;;;;;5045902;28;13576;-54
2020/12/23 08:54:13;;;;;;;;;;;;;;;;;;5035619;28;10824;-47
2020/12/23 08:56:44;;;;;;;;;;;;;;;;;;5039875;28;8738;-48
2020/12/23 08:59:10;;;;;;;;;;;;;;;;;;5041884;28;9311;-51
2020/12/23 09:01:35;;;;;;;;;;;;;;;;;;5042969;28;10693;-48
2020/12/23 09:04:05;;;;;;;;;;;;;;;;;;5042999;28;14024;-47
2020/12/23 09:06:34;;;;;;;;;;;;;;;;;;5041089;28;10725;-52
2020/12/23 09:09:20;;;;;;;;;;;;;;;;;;5039761;28;10741;-51
2020/12/23 09:11:47;;;;;;;;;;;;;;;;;;5045166;28;7559;-47
2020/12/23 09:14:20;;;;;;;;;;;;;;;;;;5045967;28;4452;-54
2020/12/23 09:17:13;;;;;;;;;;;;;;;;;;5041706;28;14019;-53
2020/12/23 09:19:39;;;;;;;;;;;;;;;;;;4982922;28;10933;-53
2020/12/23 09:22:04;;;;;;;;;;;;;;;;;;4985684;28;16456;-43
2020/12/23 09:24:30;;;;;;;;;;;;;;;;;;4985968;28;15982;-49
2020/12/23 09:26:55;;;;;;;;;;;;;;;;;;4986527;28;10024;-52
2020/12/23 09:29:20;;;;;;;;;;;;;;;;;;4984399;28;4261;-50
2020/12/23 09:31:49;;;;;;;;;;;;;;;;;;4984495;28;10249;-45
2020/12/23 09:34:20;;;;;;;;;;;;;;;;;;4987727;28;11217;-51
2020/12/23 09:36:52;;;;;;;;;;;;;;;;;;4984021;28;9754;-51
2020/12/23 09:39:18;;;;;;;;;;;;;;;;;;4985036;28;14350;-50
2020/12/23 09:41:43;;;;;;;;;;;;;;;;;;4985936;28;11741;-45
2020/12/23 09:44:08;;;;;;;;;;;;;;;;;;4985282;28;7064;-54
2020/12/23 09:46:33;;;;;;;;;;;;;;;;;;4979677;28;9629;-44
2020/12/23 09:48:59;;;;;;;;;;;;;;;;;;4981008;28;9440;-46
2020/12/23 09:51:24;;;;;;;;;;;;;;;;;;4981907;28;8904;-49
2020/12/23 09:53:49;;;;;;;;;;;;;;;;;;4981240;28;14401;-45
2020/12/23 09:56:16;;;;;;;;;;;;;;;;;;5012131;28;4255;-50
2020/12/23 09:58:41;;;;;;;;;;;;;;;;;;5044834;28;14657;-47
2020/12/23 10:01:08;;;;;;;;;;;;;;;;;;5042693;28;11698;-50
2020/12/23 10:03:33;;;;;;;;;;;;;;;;;;5041008;28;11714;-50
2020/12/23 10:05:58;;;;;;;;;;;;;;;;;;5042919;28;13021;-50
2020/12/23 10:08:24;;;;;;;;;;;;;;;;;;5045302;28;4083;-51
2020/12/23 10:10:49;;;;;;;;;;;;;;;;;;5043028;28;11407;-47
2020/12/23 10:13:14;;;;;;;;;;;;;;;;;;5046973;28;15521;-49
2020/12/23 10:15:39;;;;;;;;;;;;;;;;;;5042900;28;9332;-46
2020/12/23 10:18:05;;;;;;;;;;;;;;;;;;5050042;28;14172;-52
2020/12/23 10:20:30;;;;;;;;;;;;;;;;;;5051755;28;4137;-50
2020/12/23 10:22:55;;;;;;;;;;;;;;;;;;5046698;28;15170;-50
2020/12/23 10:25:20;;;;;;;;;;;;;;;;;;5048445;28;12378;-50
2020/12/23 10:27:46;;;;;;;;;;;;;;;;;;5048811;28;12166;-47
2020/12/23 10:30:11;;;;;;;;;;;;;;;;;;5043207;28;12025;-47
2020/12/23 10:32:38;;;;;;;;;;;;;;;;;;5048209;28;15956;-48
2020/12/23 10:35:04;;;;;;;;;;;;;;;;;;5048253;28;9558;-48
2020/12/23 10:37:29;;;;;;;;;;;;;;;;;;5048258;28;11491;-52
2020/12/23 10:39:56;;;;;;;;;;;;;;;;;;5043277;28;15372;-51
2020/12/23 10:42:21;;;;;;;;;;;;;;;;;;5036624;28;12601;-52
2020/12/23 10:44:46;;;;;;;;;;;;;;;;;;5047921;28;9174;-47
2020/12/23 10:47:12;;;;;;;;;;;;;;;;;;5044508;28;7165;-48
2020/12/23 10:49:37;;;;;;;;;;;;;;;;;;5050338;28;14805;-49
2020/12/23 10:52:02;;;;;;;;;;;;;;;;;;5043885;28;9354;-47
2020/12/23 10:54:28;;;;;;;;;;;;;;;;;;5048686;28;15570;-45
2020/12/23 10:56:54;;;;;;;;;;;;;;;;;;5038540;28;15801;-52
2020/12/23 10:59:20;;;;;;;;;;;;;;;;;;5050745;28;4155;-50
2020/12/23 11:01:46;;;;;;;;;;;;;;;;;;5047849;28;11339;-48
2020/12/23 11:04:11;;;;;;;;;;;;;;;;;;5044036;28;9283;-49
2020/12/23 11:06:37;;;;;;;;;;;;;;;;;;5046742;28;9158;-48
2020/12/23 11:09:03;;;;;;;;;;;;;;;;;;5044894;28;13001;-49
2020/12/23 11:11:29;;;;;;;;;;;;;;;;;;5044920;28;4598;-47
2020/12/23 11:13:54;;;;;;;;;;;;;;;;;;5043298;28;10835;-44
2020/12/23 11:16:19;;;;;;;;;;;;;;;;;;5048529;28;16557;-48
2020/12/23 11:18:48;;;;;;;;;;;;;;;;;;5029727;28;14888;-48
2020/12/23 11:21:14;;;;;;;;;;;;;;;;;;5043405;28;14670;-51
2020/12/23 11:23:39;;;;;;;;;;;;;;;;;;5044998;28;14047;-51
2020/12/23 11:26:04;;;;;;;;;;;;;;;;;;5047969;28;9458;-47
2020/12/23 11:28:32;;;;;;;;;;;;;;;;;;5047941;28;13380;-48
2020/12/23 11:30:59;;;;;;;;;;;;;;;;;;5048802;28;14581;-52
2020/12/23 11:33:28;;;;;;;;;;;;;;;;;;5047042;28;13713;-47
2020/12/23 11:35:53;;;;;;;;;;;;;;;;;;5047527;28;16650;-50
2020/12/23 11:38:18;;;;;;;;;;;;;;;;;;5045959;28;4239;-48
2020/12/23 11:40:44;;;;;;;;;;;;;;;;;;5044747;28;7466;-52
2020/12/23 11:43:09;;;;;;;;;;;;;;;;;;5050798;28;8771;-51
2020/12/23 11:45:35;;;;;;;;;;;;;;;;;;5044732;28;9270;-47
2020/12/23 11:48:00;;;;;;;;;;;;;;;;;;5047776;28;10542;-45
2020/12/23 11:50:25;;;;;;;;;;;;;;;;;;5048030;28;4466;-55
2020/12/23 11:52:51;;;;;;;;;;;;;;;;;;5043646;28;10678;-52
2020/12/23 11:55:18;;;;;;;;;;;;;;;;;;5045896;28;9361;-48
2020/12/23 11:57:43;;;;;;;;;;;;;;;;;;5046158;28;11355;-49
2020/12/23 12:00:09;;;;;;;;;;;;;;;;;;5047958;28;8017;-53
2020/12/23 12:02:34;;;;;;;;;;;;;;;;;;5050297;28;13124;-47
2020/12/23 12:04:59;;;;;;;;;;;;;;;;;;5047715;28;17114;-49
2020/12/23 12:07:24;;;;;;;;;;;;;;;;;;5043560;28;15298;-49
2020/12/23 12:09:50;;;;;;;;;;;;;;;;;;5046551;28;11801;-49
2020/12/23 12:12:15;;;;;;;;;;;;;;;;;;5046637;28;10966;-48
2020/12/23 12:14:40;;;;;;;;;;;;;;;;;;5048821;28;9830;-54
2020/12/23 12:17:06;;;;;;;;;;;;;;;;;;5045475;28;7488;-52
2020/12/23 12:19:31;;;;;;;;;;;;;;;;;;5045573;28;12735;-52
2020/12/23 12:21:56;;;;;;;;;;;;;;;;;;5046422;28;14077;-51
2020/12/23 12:24:21;;;;;;;;;;;;;;;;;;5046560;28;9955;-51
2020/12/23 12:26:46;;;;;;;;;;;;;;;;;;5040691;28;14538;-46
2020/12/23 12:29:12;;;;;;;;;;;;;;;;;;5045441;28;3939;-49
2020/12/23 12:31:38;;;;;;;;;;;;;;;;;;5041290;28;14408;-54
2020/12/23 12:34:03;;;;;;;;;;;;;;;;;;5046750;28;9257;-49
2020/12/23 12:36:28;;;;;;;;;;;;;;;;;;5040082;28;14611;-50
2020/12/23 12:38:53;;;;;;;;;;;;;;;;;;5043814;28;12631;-48
2020/12/23 12:41:37;;;;;;;;;;;;;;;;;;5045095;28;4430;-46
2020/12/23 12:44:02;;;;;;;;;;;;;;;;;;5044508;28;10289;-48
2020/12/23 12:46:27;;;;;;;;;;;;;;;;;;5041181;28;9977;-52
2020/12/23 12:48:53;;;;;;;;;;;;;;;;;;5044204;28;14270;-49
2020/12/23 12:51:25;;;;;;;;;;;;;;;;;;5041419;28;14422;-47
2020/12/23 12:53:50;;;;;;;;;;;;;;;;;;5036638;28;15558;-50
2020/12/23 12:56:20;;;;;;;;;;;;;;;;;;5048477;28;4472;-54
2020/12/23 12:58:45;;;;;;;;;;;;;;;;;;5046394;28;13193;-47
2020/12/23 13:01:11;;;;;;;;;;;;;;;;;;5045840;28;16270;-50
2020/12/23 13:03:36;;;;;;;;;;;;;;;;;;5039612;28;11385;-49
2020/12/23 13:06:01;;;;;;;;;;;;;;;;;;5045410;28;9353;-51
2020/12/23 13:08:27;;;;;;;;;;;;;;;;;;5039310;28;4232;-53
2020/12/23 13:10:53;;;;;;;;;;;;;;;;;;5040690;28;14661;-48
2020/12/23 13:13:18;;;;;;;;;;;;;;;;;;5045352;28;10246;-53
2020/12/23 13:15:43;;;;;;;;;;;;;;;;;;5045454;28;15713;-50
2020/12/23 13:18:13;;;;;;;;;;;;;;;;;;5045774;28;10863;-48
2020/12/23 13:20:38;;;;;;;;;;;;;;;;;;5035952;28;14368;-50
2020/12/23 13:23:04;;;;;;;;;;;;;;;;;;5042392;28;7457;-49
2020/12/23 13:25:29;;;;;;;;;;;;;;;;;;5045262;28;13742;-48
2020/12/23 13:27:54;;;;;;;;;;;;;;;;;;5031124;28;9623;-49
2020/12/23 13:30:20;;;;;;;;;;;;;;;;;;5042957;28;7981;-48
2020/12/23 13:32:45;;;;;;;;;;;;;;;;;;5046399;28;15880;-52
2020/12/23 13:35:11;;;;;;;;;;;;;;;;;;5046456;28;6886;-46
2020/12/23 13:37:36;;;;;;;;;;;;;;;;;;5041963;28;9413;-51
2020/12/23 13:40:02;;;;;;;;;;;;;;;;;;5044289;28;9428;-50
2020/12/23 13:42:27;;;;;;;;;;;;;;;;;;5043430;28;9624;-52
2020/12/23 13:44:53;;;;;;;;;;;;;;;;;;5036771;28;15498;-52
2020/12/23 13:47:18;;;;;;;;;;;;;;;;;;5045754;28;4406;-52
2020/12/23 13:49:43;;;;;;;;;;;;;;;;;;5041941;28;14682;-53
2020/12/23 13:52:10;;;;;;;;;;;;;;;;;;5047717;28;9151;-51
2020/12/23 13:54:36;;;;;;;;;;;;;;;;;;5049655;28;8541;-46
2020/12/23 13:57:01;;;;;;;;;;;;;;;;;;5049432;28;13878;-47
2020/12/23 13:59:26;;;;;;;;;;;;;;;;;;5049766;28;4398;-49
2020/12/23 14:01:52;;;;;;;;;;;;;;;;;;5049852;28;12621;-47
2020/12/23 14:04:17;;;;;;;;;;;;;;;;;;5041648;28;14393;-50
2020/12/23 14:06:42;;;;;;;;;;;;;;;;;;5045307;28;13391;-52
2020/12/23 14:09:08;;;;;;;;;;;;;;;;;;5043773;28;9529;-47
2020/12/23 14:11:33;;;;;;;;;;;;;;;;;;5047233;28;4516;-47
2020/12/23 14:13:58;;;;;;;;;;;;;;;;;;5048134;28;9349;-49
2020/12/23 14:16:24;;;;;;;;;;;;;;;;;;5045915;28;16155;-45
2020/12/23 14:18:50;;;;;;;;;;;;;;;;;;5047066;28;14026;-53
2020/12/23 14:21:15;;;;;;;;;;;;;;;;;;5046316;28;11745;-48
2020/12/23 14:23:40;;;;;;;;;;;;;;;;;;5031205;28;13366;-47
2020/12/23 14:26:05;;;;;;;;;;;;;;;;;;5045757;28;6945;-52
2020/12/23 14:28:31;;;;;;;;;;;;;;;;;;5042952;28;9503;-52
2020/12/23 14:30:56;;;;;;;;;;;;;;;;;;5049085;28;13799;-50
2020/12/23 14:33:22;;;;;;;;;;;;;;;;;;5048682;28;15374;-53
2020/12/23 14:35:48;;;;;;;;;;;;;;;;;;5049099;28;14610;-50
2020/12/23 14:38:13;;;;;;;;;;;;;;;;;;5050535;28;4011;-47
2020/12/23 14:40:38;;;;;;;;;;;;;;;;;;5048030;28;7689;-52
2020/12/23 14:43:04;;;;;;;;;;;;;;;;;;5047673;28;7161;-49
2020/12/23 14:45:29;;;;;;;;;;;;;;;;;;5048508;28;12530;-55
2020/12/23 14:47:54;;;;;;;;;;;;;;;;;;5037969;28;15083;-49
2020/12/23 14:50:19;;;;;;;;;;;;;;;;;;5049816;28;4266;-47
2020/12/23 14:52:45;;;;;;;;;;;;;;;;;;5046758;28;8354;-50
2020/12/23 14:55:10;;;;;;;;;;;;;;;;;;5048149;28;9161;-51
2020/12/23 14:57:36;;;;;;;;;;;;;;;;;;5047656;28;9768;-44
2020/12/23 15:00:04;;;;;;;;;;;;;;;;;;5044160;28;9460;-53
2020/12/23 15:02:29;;;;;;;;;;;;;;;;;;5043599;28;4185;-51
2020/12/23 15:04:54;;;;;;;;;;;;;;;;;;5046194;28;16173;-53
2020/12/23 15:07:19;;;;;;;;;;;;;;;;;;5044998;28;14502;-48
2020/12/23 15:09:45;;;;;;;;;;;;;;;;;;5038972;28;12836;-46
2020/12/23 15:12:10;;;;;;;;;;;;;;;;;;5045976;28;9444;-52
2020/12/23 15:14:35;;;;;;;;;;;;;;;;;;5047023;28;4224;-52
2020/12/23 15:17:00;;;;;;;;;;;;;;;;;;5044409;28;14496;-47
2020/12/23 15:19:26;;;;;;;;;;;;;;;;;;5046016;28;14371;-48
2020/12/23 15:21:51;;;;;;;;;;;;;;;;;;5047874;28;10997;-50
2020/12/23 15:24:16;;;;;;;;;;;;;;;;;;5046948;28;7217;-51
2020/12/23 15:26:42;;;;;;;;;;;;;;;;;;5050183;28;8194;-50
2020/12/23 15:29:07;;;;;;;;;;;;;;;;;;5048728;28;7466;-50
2020/12/23 15:31:32;;;;;;;;;;;;;;;;;;5048215;28;15941;-50
2020/12/23 15:33:58;;;;;;;;;;;;;;;;;;5046905;28;12008;-51
2020/12/23 15:36:23;;;;;;;;;;;;;;;;;;5045936;28;9018;-48
2020/12/23 15:38:48;;;;;;;;;;;;;;;;;;5048538;28;11254;-53
2020/12/23 15:41:14;;;;;;;;;;;;;;;;;;5048956;28;6950;-49
2020/12/23 15:43:40;;;;;;;;;;;;;;;;;;5039934;28;12978;-49
2020/12/23 15:46:07;;;;;;;;;;;;;;;;;;5047402;28;15041;-47
2020/12/23 15:48:32;;;;;;;;;;;;;;;;;;5037673;28;9476;-49
2020/12/23 15:50:58;;;;;;;;;;;;;;;;;;5041032;28;14353;-50
2020/12/23 15:53:23;;;;;;;;;;;;;;;;;;5048705;28;4217;-46
2020/12/23 15:55:48;;;;;;;;;;;;;;;;;;5043399;28;17516;-51
2020/12/23 15:58:13;;;;;;;;;;;;;;;;;;5041479;28;15481;-47
2020/12/23 16:00:39;;;;;;;;;;;;;;;;;;5040505;28;17778;-52
2020/12/23 16:03:04;;;;;;;;;;;;;;;;;;5041764;28;11703;-54
2020/12/23 16:05:29;;;;;;;;;;;;;;;;;;5041153;28;4069;-54
2020/12/23 16:07:55;;;;;;;;;;;;;;;;;;5041981;28;14037;-48
2020/12/23 16:10:20;;;;;;;;;;;;;;;;;;5042950;28;14729;-48
2020/12/23 16:12:45;;;;;;;;;;;;;;;;;;5038990;28;14547;-51
2020/12/23 16:15:13;;;;;;;;;;;;;;;;;;5042191;28;9336;-52
2020/12/23 16:17:38;;;;;;;;;;;;;;;;;;5041756;28;4172;-51
2020/12/23 16:20:04;;;;;;;;;;;;;;;;;;5045993;28;9515;-49
2020/12/23 16:22:29;;;;;;;;;;;;;;;;;;5043617;28;15886;-53
2020/12/23 16:24:54;;;;;;;;;;;;;;;;;;5047974;28;9516;-49
2020/12/23 16:27:20;;;;;;;;;;;;;;;;;;5045779;28;13528;-46
2020/12/23 16:29:45;;;;;;;;;;;;;;;;;;5042472;28;14185;-47
2020/12/23 16:32:16;;;;;;;;;;;;;;;;;;5039040;28;6909;-52
2020/12/23 16:34:42;;;;;;;;;;;;;;;;;;5043918;28;10188;-50
2020/12/23 16:37:07;;;;;;;;;;;;;;;;;;5045418;28;14999;-47
2020/12/23 16:39:33;;;;;;;;;;;;;;;;;;5042454;28;10974;-52
2020/12/23 16:42:03;;;;;;;;;;;;;;;;;;5040751;28;11191;-52
2020/12/23 16:44:28;;;;;;;;;;;;;;;;;;5048466;28;4334;-55
2020/12/23 16:46:54;;;;;;;;;;;;;;;;;;5045630;28;12919;-53